This is the latest recevied weather packets stored in our database for station/object E22ZMG-3. If no packets are shown the sender has not sent any weather packets the latest 1 day(s).
| Time | Temp. | Humidity | Pressure | Rain* | Wind** | Luminosity | Snow |
|---|---|---|---|---|---|---|---|
| 1778028258 | 32.78° C | 55% | 977 hPa | - | 0 m/s | 0 W/m² | - |
| 1778027634 | 31.67° C | 57% | 977 hPa | - | 0 m/s | 0 W/m² | - |
| 1778027010 | 32.22° C | 57% | 976 hPa | - | 0 m/s | 0 W/m² | - |
| 1778026385 | 31.67° C | 58% | 976 hPa | - | 0 m/s | 0 W/m² | - |
| 1778025760 | 31.11° C | 60% | 976 hPa | - | 0 m/s | 0 W/m² | - |
| 1778025135 | 31.11° C | 60% | 976 hPa | - | 0 m/s | 0 W/m² | - |
| 1778024512 | 31.11° C | 60% | 976 hPa | - | 0 m/s | 0 W/m² | - |
| 1778024511 | 31.11° C | 60% | 976 hPa | - | 0 m/s | 0 W/m² | - |
| 1778023886 | 30.56° C | 61% | 976 hPa | - | 0 m/s | 0 W/m² | - |
| 1778023265 | 30.56° C | 60% | 976 hPa | - | 0 m/s | 0 W/m² | - |
| 1778023261 | 30.56° C | 60% | 976 hPa | - | 0 m/s | 0 W/m² | - |
| 1778022637 | 31.11° C | 59% | 976 hPa | - | 0 m/s | 0 W/m² | - |
| 1778022013 | 31.11° C | 59% | 976 hPa | - | 0 m/s | 0 W/m² | - |
| 1778021388 | 31.11° C | 59% | 976 hPa | - | 0 m/s | 0 W/m² | - |
| 1778020761 | 30.56° C | 60% | 976 hPa | - | 0 m/s | 0 W/m² | - |
| 1778020136 | 31.67° C | 57% | 975 hPa | - | 0 m/s | 0 W/m² | - |
| 1778019512 | 30.56° C | 61% | 975 hPa | - | 0 m/s | 0 W/m² | - |
| 1778018887 | 31.11° C | 60% | 975 hPa | - | 0 m/s | 0 W/m² | - |
| 1778018263 | 31.11° C | 58% | 975 hPa | - | 0 m/s | 0 W/m² | - |
| 1778017638 | 31.67° C | 57% | 975 hPa | - | 0 m/s | 0 W/m² | - |
| 1778017013 | 31.67° C | 57% | 975 hPa | - | 0 m/s | 0 W/m² | - |
| 1778016388 | 31.67° C | 58% | 975 hPa | - | 0 m/s | 0 W/m² | - |
| 1778015764 | 31.11° C | 59% | 975 hPa | - | 0 m/s | 0 W/m² | - |
| 1778015139 | 31.67° C | 56% | 975 hPa | - | 0 m/s | 0 W/m² | - |
| 1778014514 | 31.67° C | 57% | 975 hPa | - | 0 m/s | 0 W/m² | - |
* Rain since midnight (hover to see other rain measurements)
** Current wind speed in m/s (hover to see current wind gust speed)